Time;durP1;ratioP1;P1;durP2;ratioP2;P2;SDS_P1;SDS_P2;PMS_P1;PMS_P2;Temp;Humidity;BMP_temperature;BMP_pressure;BME280_temperature;BME280_humidity;BME280_pressure;Samples;Min_cycle;Max_cycle;Signal;HPM_P1;HPM_P2
2022/05/20 00:00:56;;;;;;;4.25;1.10;;;;;;;;;;5093880;28;20075;-75
2022/05/20 00:03:22;;;;;;;2.80;1.38;;;;;;;;;;5095004;28;20087;-75
2022/05/20 00:05:49;;;;;;;3.25;1.38;;;;;;;;;;5094763;28;20539;-75
2022/05/20 00:08:15;;;;;;;3.75;1.65;;;;;;;;;;5093676;28;20162;-75
2022/05/20 00:10:42;;;;;;;3.22;1.60;;;;;;;;;;5094967;28;20082;-75
2022/05/20 00:13:09;;;;;;;5.68;1.45;;;;;;;;;;5093595;28;20071;-75
2022/05/20 00:15:36;;;;;;;2.70;1.02;;;;;;;;;;5093584;28;20048;-75
2022/05/20 00:18:03;;;;;;;5.93;1.70;;;;;;;;;;5094512;28;20086;-75
2022/05/20 00:20:29;;;;;;;7.93;1.63;;;;;;;;;;5094793;28;20098;-75
2022/05/20 00:22:56;;;;;;;4.47;1.30;;;;;;;;;;5093060;28;20055;-75
2022/05/20 00:28:08;;;;;;;5.22;1.60;;;;;;;;;;5093284;28;20063;-74
2022/05/20 00:30:35;;;;;;;2.78;1.30;;;;;;;;;;5093422;28;20055;-74
2022/05/20 00:33:02;;;;;;;2.42;1.50;;;;;;;;;;5094282;28;20048;-74
2022/05/20 00:35:28;;;;;;;4.85;1.50;;;;;;;;;;5084398;28;20087;-74
2022/05/20 00:37:54;;;;;;;3.08;1.30;;;;;;;;;;5085288;28;20086;-74
2022/05/20 00:40:22;;;;;;;4.28;1.42;;;;;;;;;;5093957;28;20530;-74
2022/05/20 00:42:51;;;;;;;4.13;1.60;;;;;;;;;;5094250;28;20135;-74
2022/05/20 00:45:18;;;;;;;2.33;1.20;;;;;;;;;;5094273;28;20066;-75
2022/05/20 00:47:44;;;;;;;5.50;1.48;;;;;;;;;;5094075;28;20079;-75
2022/05/20 00:50:13;;;;;;;2.20;0.98;;;;;;;;;;5093903;28;20128;-74
2022/05/20 00:52:41;;;;;;;3.60;1.27;;;;;;;;;;5093999;28;20051;-75
2022/05/20 00:55:11;;;;;;;3.17;1.33;;;;;;;;;;5079248;28;20083;-74
2022/05/20 00:57:42;;;;;;;3.65;1.60;;;;;;;;;;5093295;28;20189;-74
2022/05/20 01:00:15;;;;;;;4.57;1.50;;;;;;;;;;5092553;28;20048;-74
2022/05/20 01:02:42;;;;;;;4.82;1.27;;;;;;;;;;5093823;28;20113;-74
2022/05/20 01:05:21;;;;;;;3.75;1.52;;;;;;;;;;5094058;28;20048;-75
2022/05/20 01:07:48;;;;;;;5.00;1.77;;;;;;;;;;5093263;28;20071;-75
2022/05/20 01:10:14;;;;;;;2.90;1.37;;;;;;;;;;5093649;28;20079;-75
2022/05/20 01:12:41;;;;;;;5.95;1.67;;;;;;;;;;5093384;28;20097;-75
2022/05/20 01:15:08;;;;;;;4.05;1.15;;;;;;;;;;5093319;28;20083;-75
2022/05/20 01:17:34;;;;;;;2.40;1.20;;;;;;;;;;5093661;28;20087;-75
2022/05/20 01:20:02;;;;;;;5.18;2.00;;;;;;;;;;5093528;28;20086;-75
2022/05/20 01:22:41;;;;;;;4.20;1.40;;;;;;;;;;5093516;28;20144;-75
2022/05/20 01:25:08;;;;;;;4.05;2.05;;;;;;;;;;5093276;28;20083;-75
2022/05/20 01:27:42;;;;;;;3.55;1.90;;;;;;;;;;5093200;28;20060;-74
2022/05/20 01:30:13;;;;;;;5.07;2.10;;;;;;;;;;5092052;28;20093;-74
2022/05/20 01:32:40;;;;;;;3.45;1.30;;;;;;;;;;5093104;28;20502;-74
2022/05/20 01:35:10;;;;;;;3.07;1.63;;;;;;;;;;5087528;28;20079;-74
2022/05/20 01:37:36;;;;;;;2.55;1.38;;;;;;;;;;5081708;28;20082;-75
2022/05/20 01:40:03;;;;;;;3.28;1.70;;;;;;;;;;5093115;28;20075;-74
2022/05/20 01:42:37;;;;;;;5.20;1.70;;;;;;;;;;5093167;28;20080;-74
2022/05/20 01:45:10;;;;;;;3.58;1.52;;;;;;;;;;5093099;28;20134;-74
2022/05/20 01:47:37;;;;;;;2.15;1.55;;;;;;;;;;5092960;28;20083;-75
2022/05/20 01:50:10;;;;;;;5.60;1.70;;;;;;;;;;5091437;28;20134;-74
2022/05/20 01:52:39;;;;;;;3.65;1.95;;;;;;;;;;5092645;28;20071;-75
2022/05/20 01:55:15;;;;;;;3.60;1.77;;;;;;;;;;5092962;28;20083;-74
2022/05/20 01:57:45;;;;;;;3.90;1.40;;;;;;;;;;5092710;28;20076;-75
2022/05/20 02:00:13;;;;;;;4.18;1.63;;;;;;;;;;5092481;28;20503;-75
2022/05/20 02:02:53;;;;;;;2.97;1.27;;;;;;;;;;5092502;28;20130;-75
2022/05/20 02:05:28;;;;;;;5.18;1.60;;;;;;;;;;5092328;28;20495;-75
2022/05/20 02:07:58;;;;;;;3.75;1.90;;;;;;;;;;5092497;28;20181;-75
2022/05/20 02:10:31;;;;;;;2.33;1.20;;;;;;;;;;5092623;28;20057;-75
2022/05/20 02:12:59;;;;;;;3.17;1.20;;;;;;;;;;5092118;28;20452;-75
2022/05/20 02:15:35;;;;;;;2.90;1.48;;;;;;;;;;5091081;28;20385;-75
2022/05/20 02:18:03;;;;;;;3.25;1.48;;;;;;;;;;5092113;28;20044;-75
2022/05/20 02:20:30;;;;;;;6.38;2.00;;;;;;;;;;5092384;28;20117;-75
2022/05/20 02:22:59;;;;;;;4.05;1.70;;;;;;;;;;5092026;28;20531;-75
2022/05/20 02:25:28;;;;;;;2.47;1.52;;;;;;;;;;5092312;28;20126;-75
2022/05/20 02:27:57;;;;;;;2.50;1.35;;;;;;;;;;5091943;28;20081;-75
2022/05/20 02:30:27;;;;;;;4.53;1.75;;;;;;;;;;5091944;28;20563;-75
2022/05/20 02:33:03;;;;;;;3.30;1.27;;;;;;;;;;5091865;28;20080;-76
2022/05/20 02:35:30;;;;;;;4.40;1.43;;;;;;;;;;5083226;28;20135;-75
2022/05/20 02:38:02;;;;;;;5.10;1.92;;;;;;;;;;5083029;28;20087;-75
2022/05/20 02:40:29;;;;;;;4.85;1.85;;;;;;;;;;5090493;28;20535;-75
2022/05/20 02:42:56;;;;;;;3.92;1.58;;;;;;;;;;5092048;28;20076;-75
2022/05/20 02:45:22;;;;;;;4.63;1.48;;;;;;;;;;5092329;28;20063;-74
2022/05/20 02:47:49;;;;;;;3.03;1.60;;;;;;;;;;5091920;28;20484;-75
2022/05/20 02:50:15;;;;;;;4.70;1.50;;;;;;;;;;5091813;28;20131;-75
2022/05/20 02:52:42;;;;;;;4.20;2.10;;;;;;;;;;5091671;28;20072;-76
2022/05/20 02:55:08;;;;;;;4.05;1.80;;;;;;;;;;5092047;28;20044;-76
2022/05/20 02:57:36;;;;;;;6.68;1.80;;;;;;;;;;5086795;28;20420;-76
2022/05/20 03:05:45;;;;;;;6.68;1.92;;;;;;;;;;5091374;28;20108;-76
2022/05/20 03:08:12;;;;;;;3.77;1.73;;;;;;;;;;5091656;28;20044;-76
2022/05/20 03:10:38;;;;;;;6.87;2.17;;;;;;;;;;5091411;28;20075;-76
2022/05/20 03:13:06;;;;;;;3.35;1.63;;;;;;;;;;5091763;28;20075;-75
2022/05/20 03:15:35;;;;;;;2.38;1.27;;;;;;;;;;5091892;28;20051;-75
2022/05/20 03:18:01;;;;;;;3.65;1.30;;;;;;;;;;5091598;28;20090;-75
2022/05/20 03:20:27;;;;;;;2.28;1.17;;;;;;;;;;5091730;28;20134;-76
2022/05/20 03:22:54;;;;;;;2.92;1.50;;;;;;;;;;5090256;28;20562;-75
2022/05/20 03:25:21;;;;;;;5.95;1.67;;;;;;;;;;5091700;28;20056;-75
2022/05/20 03:27:48;;;;;;;3.88;1.58;;;;;;;;;;5091591;28;20080;-75
2022/05/20 03:30:15;;;;;;;5.53;1.70;;;;;;;;;;5091422;28;20075;-74
2022/05/20 03:32:41;;;;;;;3.83;1.57;;;;;;;;;;5091206;28;20079;-76
2022/05/20 03:35:08;;;;;;;3.30;1.20;;;;;;;;;;5085645;28;20053;-74
2022/05/20 03:37:34;;;;;;;4.40;1.42;;;;;;;;;;5079956;28;20127;-74
2022/05/20 03:40:02;;;;;;;4.93;1.98;;;;;;;;;;5091402;28;20063;-74
2022/05/20 03:42:29;;;;;;;5.07;1.60;;;;;;;;;;5091524;28;20101;-75
2022/05/20 03:44:56;;;;;;;4.93;1.65;;;;;;;;;;5091497;28;20439;-75
2022/05/20 03:47:22;;;;;;;6.03;1.70;;;;;;;;;;5092276;28;20075;-75
2022/05/20 03:49:48;;;;;;;6.45;1.98;;;;;;;;;;5090750;28;20459;-75
2022/05/20 03:52:15;;;;;;;4.47;2.00;;;;;;;;;;5089835;28;20074;-75
2022/05/20 03:54:42;;;;;;;3.85;2.08;;;;;;;;;;5094667;28;20075;-75
2022/05/20 03:57:09;;;;;;;4.43;1.73;;;;;;;;;;5093926;28;20040;-75
2022/05/20 03:59:36;;;;;;;5.22;1.63;;;;;;;;;;5095017;28;20109;-75
2022/05/20 04:02:07;;;;;;;5.85;2.00;;;;;;;;;;5093497;28;20079;-75
2022/05/20 04:04:38;;;;;;;5.82;1.80;;;;;;;;;;5066833;28;20087;-75
2022/05/20 04:07:24;;;;;;;5.57;1.80;;;;;;;;;;5094652;28;20553;-75
2022/05/20 04:09:50;;;;;;;4.22;2.10;;;;;;;;;;5094559;28;20044;-74
2022/05/20 04:12:21;;;;;;;3.20;1.40;;;;;;;;;;5094920;28;20078;-74
2022/05/20 04:14:48;;;;;;;3.30;1.50;;;;;;;;;;5095043;28;20086;-74
2022/05/20 04:17:14;;;;;;;3.67;1.58;;;;;;;;;;5094461;28;20075;-74
2022/05/20 04:19:41;;;;;;;6.97;1.92;;;;;;;;;;5094477;28;20044;-74
2022/05/20 04:22:08;;;;;;;5.55;1.98;;;;;;;;;;5094685;28;20067;-74
2022/05/20 04:24:35;;;;;;;4.22;1.67;;;;;;;;;;5094170;28;20052;-74
2022/05/20 04:27:01;;;;;;;4.03;1.90;;;;;;;;;;5094507;28;20093;-74
2022/05/20 04:29:28;;;;;;;7.28;1.80;;;;;;;;;;5094024;28;20301;-74
2022/05/20 04:31:54;;;;;;;8.23;1.88;;;;;;;;;;5094492;28;20078;-74
2022/05/20 04:34:21;;;;;;;3.63;1.60;;;;;;;;;;5093902;28;20140;-75
2022/05/20 04:36:48;;;;;;;5.15;2.10;;;;;;;;;;5079364;28;20072;-74
2022/05/20 04:39:15;;;;;;;3.92;1.73;;;;;;;;;;5094307;28;20055;-75
2022/05/20 04:47:18;;;;;;;8.82;2.80;;;;;;;;;;5094387;28;20131;-75
2022/05/20 04:49:45;;;;;;;3.75;1.65;;;;;;;;;;5094088;28;20127;-75
2022/05/20 04:52:11;;;;;;;4.75;1.80;;;;;;;;;;5093967;28;20099;-75
2022/05/20 04:54:49;;;;;;;8.57;2.38;;;;;;;;;;5093924;28;20048;-75
2022/05/20 04:57:25;;;;;;;8.13;2.95;;;;;;;;;;5093649;28;20515;-75
2022/05/20 04:59:52;;;;;;;3.83;1.95;;;;;;;;;;5092676;28;20139;-74
2022/05/20 05:02:19;;;;;;;4.10;1.85;;;;;;;;;;5093020;28;20138;-74
2022/05/20 05:04:46;;;;;;;3.40;1.75;;;;;;;;;;5092649;28;20102;-74
2022/05/20 05:07:12;;;;;;;6.77;2.30;;;;;;;;;;5093763;28;20082;-75
2022/05/20 05:09:39;;;;;;;6.00;2.38;;;;;;;;;;5093420;28;20121;-75
2022/05/20 05:12:07;;;;;;;5.70;2.22;;;;;;;;;;5093671;28;20119;-75
2022/05/20 05:14:44;;;;;;;5.13;2.17;;;;;;;;;;5093614;28;20095;-73
2022/05/20 05:17:11;;;;;;;6.00;2.22;;;;;;;;;;5093560;28;20078;-74
2022/05/20 05:19:38;;;;;;;3.70;1.90;;;;;;;;;;5093328;28;20086;-74
2022/05/20 05:22:05;;;;;;;5.93;2.83;;;;;;;;;;5093364;28;20076;-74
2022/05/20 05:24:32;;;;;;;5.93;2.60;;;;;;;;;;5093408;28;20131;-74
2022/05/20 05:26:59;;;;;;;5.60;2.47;;;;;;;;;;5093441;28;20135;-74
2022/05/20 05:29:25;;;;;;;4.93;2.13;;;;;;;;;;5093265;28;20047;-74
2022/05/20 05:31:52;;;;;;;3.50;2.15;;;;;;;;;;5093253;28;20458;-74
2022/05/20 05:34:18;;;;;;;5.65;2.90;;;;;;;;;;5093004;28;20107;-74
2022/05/20 05:36:45;;;;;;;7.20;4.43;;;;;;;;;;5074218;28;20072;-74
2022/05/20 05:39:11;;;;;;;6.63;3.80;;;;;;;;;;5086646;28;20143;-74
2022/05/20 05:41:38;;;;;;;8.32;4.65;;;;;;;;;;5091797;28;20052;-74
2022/05/20 05:44:04;;;;;;;9.25;4.63;;;;;;;;;;5092998;28;20090;-74
2022/05/20 05:46:31;;;;;;;7.78;4.90;;;;;;;;;;5091729;28;20075;-74
2022/05/20 05:48:58;;;;;;;6.13;4.43;;;;;;;;;;5092958;28;20052;-74
2022/05/20 05:51:25;;;;;;;7.15;4.65;;;;;;;;;;5092908;28;20090;-74
2022/05/20 05:53:52;;;;;;;9.13;4.18;;;;;;;;;;5092984;28;20460;-74
2022/05/20 05:56:18;;;;;;;5.93;4.00;;;;;;;;;;5092484;28;20091;-74
2022/05/20 05:58:44;;;;;;;7.18;4.22;;;;;;;;;;5091229;28;20493;-74
2022/05/20 06:01:12;;;;;;;7.97;5.40;;;;;;;;;;5092776;28;20106;-74
2022/05/20 06:03:39;;;;;;;8.88;4.78;;;;;;;;;;5092549;28;20055;-75
2022/05/20 06:06:05;;;;;;;7.82;4.18;;;;;;;;;;5092481;28;20075;-74
2022/05/20 06:08:31;;;;;;;5.88;4.20;;;;;;;;;;5092180;28;20044;-75
2022/05/20 06:10:59;;;;;;;8.43;4.65;;;;;;;;;;5091272;28;20048;-75
2022/05/20 06:13:28;;;;;;;5.82;3.90;;;;;;;;;;5090139;28;20044;-75
2022/05/20 06:15:57;;;;;;;7.03;3.85;;;;;;;;;;5092500;28;20117;-75
2022/05/20 06:18:24;;;;;;;9.82;4.25;;;;;;;;;;5092389;28;20051;-75
2022/05/20 06:20:51;;;;;;;5.85;3.95;;;;;;;;;;5092439;28;20086;-75
2022/05/20 06:23:18;;;;;;;9.82;4.30;;;;;;;;;;5092308;28;20530;-76
2022/05/20 06:25:44;;;;;;;10.95;4.95;;;;;;;;;;5092326;28;20044;-76
2022/05/20 06:28:30;;;;;;;7.53;4.00;;;;;;;;;;5091711;28;20075;-76
2022/05/20 06:31:03;;;;;;;6.82;3.63;;;;;;;;;;5091824;28;20047;-77
2022/05/20 06:33:30;;;;;;;7.00;3.75;;;;;;;;;;5091809;28;20040;-76
2022/05/20 06:39:49;;;;;;;7.05;3.78;;;;;;;;;;5088448;28;20048;-77
2022/05/20 06:41:30;;;;;;;5.55;3.33;;;;;;;;;;5091354;28;20087;-77
2022/05/20 06:43:57;;;;;;;7.28;3.72;;;;;;;;;;5091791;28;20476;-77
2022/05/20 06:46:24;;;;;;;6.13;3.67;;;;;;;;;;5089740;28;20079;-77
2022/05/20 06:48:59;;;;;;;8.57;3.47;;;;;;;;;;5090864;28;20052;-79
2022/05/20 06:51:31;;;;;;;4.93;3.25;;;;;;;;;;5091489;28;20044;-78
2022/05/20 06:53:59;;;;;;;4.80;3.38;;;;;;;;;;5091756;28;20083;-77
2022/05/20 06:56:28;;;;;;;7.45;3.60;;;;;;;;;;5091623;28;20075;-75
2022/05/20 06:58:55;;;;;;;6.05;2.92;;;;;;;;;;5090410;28;20044;-76
2022/05/20 07:01:22;;;;;;;5.35;3.05;;;;;;;;;;5090405;28;20097;-76
2022/05/20 07:03:49;;;;;;;6.57;2.92;;;;;;;;;;5091129;28;20063;-76
2022/05/20 07:06:16;;;;;;;7.60;3.10;;;;;;;;;;5091882;28;20048;-76
2022/05/20 07:08:52;;;;;;;7.95;3.35;;;;;;;;;;5092030;28;20095;-75
2022/05/20 07:11:20;;;;;;;3.72;2.75;;;;;;;;;;5091442;28;20036;-77
2022/05/20 07:13:47;;;;;;;;;;;;;;;;;;5092197;28;20453;-76
2022/05/20 07:16:16;;;;;;;4.93;2.50;;;;;;;;;;5089819;28;19923;-75
2022/05/20 07:18:42;;;;;;;5.43;1.83;;;;;;;;;;5090642;28;20403;-75
2022/05/20 07:21:09;;;;;;;3.65;1.67;;;;;;;;;;5091579;28;20048;-75
2022/05/20 07:23:35;;;;;;;4.93;2.40;;;;;;;;;;5091243;28;20090;-75
2022/05/20 07:26:02;;;;;;;4.55;1.92;;;;;;;;;;5095090;28;20455;-74
2022/05/20 07:28:30;;;;;;;4.57;2.00;;;;;;;;;;5095558;28;20087;-73
2022/05/20 07:30:56;;;;;;;2.55;1.52;;;;;;;;;;5094907;28;20488;-74
2022/05/20 07:33:23;;;;;;;4.50;2.10;;;;;;;;;;5094978;28;20123;-74
2022/05/20 07:35:49;;;;;;;2.63;1.60;;;;;;;;;;5088087;28;20075;-73
2022/05/20 07:38:16;;;;;;;3.13;1.75;;;;;;;;;;5094800;28;20472;-73
2022/05/20 07:40:43;;;;;;;3.13;1.63;;;;;;;;;;5095832;28;20131;-73
2022/05/20 07:43:10;;;;;;;5.43;1.80;;;;;;;;;;5094529;28;20051;-74
2022/05/20 07:45:37;;;;;;;4.53;2.00;;;;;;;;;;5095123;28;20411;-73
2022/05/20 07:48:03;;;;;;;4.10;2.20;;;;;;;;;;5093701;28;20511;-73
2022/05/20 07:50:32;;;;;;;4.07;1.90;;;;;;;;;;5095314;28;20122;-73
2022/05/20 07:55:45;;;;;;;2.10;1.35;;;;;;;;;;5095124;28;20083;-74
2022/05/20 07:58:13;;;;;;;4.10;2.10;;;;;;;;;;5095314;28;20076;-74
2022/05/20 08:00:40;;;;;;;5.60;1.70;;;;;;;;;;5094833;28;20052;-74
2022/05/20 08:03:07;;;;;;;6.55;2.35;;;;;;;;;;5094944;28;20087;-75
2022/05/20 08:05:35;;;;;;;6.15;1.80;;;;;;;;;;5094504;28;20062;-75
2022/05/20 08:08:03;;;;;;;4.55;1.67;;;;;;;;;;5094797;28;20388;-76
2022/05/20 08:10:30;;;;;;;4.47;1.70;;;;;;;;;;5094746;28;20079;-76
2022/05/20 08:12:57;;;;;;;4.93;2.00;;;;;;;;;;5094951;28;20091;-77
2022/05/20 08:15:24;;;;;;;2.50;1.40;;;;;;;;;;5094895;28;20047;-77
2022/05/20 08:17:50;;;;;;;7.70;2.25;;;;;;;;;;5094520;28;20067;-76
2022/05/20 08:20:25;;;;;;;4.25;1.77;;;;;;;;;;5094441;28;20083;-76
2022/05/20 08:22:53;;;;;;;2.83;1.55;;;;;;;;;;5092955;28;20048;-76
2022/05/20 08:25:20;;;;;;;3.45;1.88;;;;;;;;;;5079578;28;20080;-72
2022/05/20 08:27:47;;;;;;;4.82;1.17;;;;;;;;;;5078217;28;20090;-72
2022/05/20 08:30:15;;;;;;;5.70;1.70;;;;;;;;;;5078033;28;20095;-72
2022/05/20 08:32:42;;;;;;;2.83;1.23;;;;;;;;;;5092356;28;20072;-72
2022/05/20 08:35:09;;;;;;;4.20;1.20;;;;;;;;;;5088261;28;20088;-73
2022/05/20 08:37:43;;;;;;;2.97;1.88;;;;;;;;;;5075703;28;20087;-72
2022/05/20 08:40:10;;;;;;;2.05;0.70;;;;;;;;;;5093734;28;20449;-72
2022/05/20 08:42:37;;;;;;;2.53;1.05;;;;;;;;;;5093995;28;20528;-71
2022/05/20 08:45:05;;;;;;;3.35;0.85;;;;;;;;;;5094238;28;20109;-71
2022/05/20 08:47:42;;;;;;;2.08;1.15;;;;;;;;;;5084227;28;20451;-71
2022/05/20 08:50:35;;;;;;;2.45;0.93;;;;;;;;;;5088848;28;20131;-71
2022/05/20 08:53:01;;;;;;;2.45;1.08;;;;;;;;;;5086309;28;20480;-70
2022/05/20 08:55:28;;;;;;;1.90;0.65;;;;;;;;;;5092547;28;20090;-70
2022/05/20 08:57:58;;;;;;;1.90;0.93;;;;;;;;;;5092384;28;20044;-71
2022/05/20 09:00:25;;;;;;;2.97;0.75;;;;;;;;;;5092553;28;20427;-71
2022/05/20 09:02:52;;;;;;;3.22;1.02;;;;;;;;;;5092832;28;20309;-71
2022/05/20 09:05:23;;;;;;;1.57;0.70;;;;;;;;;;5084767;28;20561;-71
2022/05/20 09:07:54;;;;;;;2.25;0.65;;;;;;;;;;5077448;28;20087;-70
2022/05/20 09:10:44;;;;;;;3.30;0.80;;;;;;;;;;5092590;28;20450;-70
2022/05/20 09:13:12;;;;;;;2.25;0.80;;;;;;;;;;5092256;28;20547;-70
2022/05/20 09:15:49;;;;;;;3.10;1.42;;;;;;;;;;5092769;28;20056;-70
2022/05/20 09:18:29;;;;;;;2.35;1.08;;;;;;;;;;5092461;28;20157;-70
2022/05/20 09:20:56;;;;;;;3.60;1.10;;;;;;;;;;5092405;28;20121;-70
2022/05/20 09:23:23;;;;;;;2.60;0.80;;;;;;;;;;5092589;28;20095;-70
2022/05/20 09:25:59;;;;;;;2.53;1.10;;;;;;;;;;5092049;28;20135;-70
2022/05/20 09:28:31;;;;;;;3.22;0.93;;;;;;;;;;5092258;28;20105;-70
2022/05/20 09:31:21;;;;;;;2.92;1.60;;;;;;;;;;5091446;28;20047;-70
2022/05/20 09:33:53;;;;;;;2.63;1.48;;;;;;;;;;5090932;28;20127;-70
2022/05/20 09:36:34;;;;;;;1.25;0.75;;;;;;;;;;5076047;28;20493;-71
2022/05/20 09:39:15;;;;;;;2.20;0.93;;;;;;;;;;5084189;28;20518;-71
2022/05/20 09:41:45;;;;;;;2.42;0.90;;;;;;;;;;5057697;28;20079;-70
2022/05/20 09:44:13;;;;;;;3.03;1.05;;;;;;;;;;5071847;28;20082;-71
2022/05/20 09:46:42;;;;;;;3.38;0.82;;;;;;;;;;5071975;28;20049;-70
2022/05/20 09:49:14;;;;;;;2.35;1.35;;;;;;;;;;5071698;28;20075;-71
2022/05/20 09:51:45;;;;;;;2.28;0.85;;;;;;;;;;5070937;28;20088;-71
2022/05/20 09:54:14;;;;;;;2.80;0.90;;;;;;;;;;5071114;28;20083;-72
2022/05/20 09:56:44;;;;;;;2.28;0.82;;;;;;;;;;5071397;28;20084;-72
2022/05/20 09:59:13;;;;;;;2.55;0.70;;;;;;;;;;5071133;28;20118;-71
2022/05/20 10:01:44;;;;;;;3.72;1.02;;;;;;;;;;5071449;28;20080;-72
2022/05/20 10:04:17;;;;;;;2.72;0.60;;;;;;;;;;5071015;28;20496;-73
2022/05/20 10:06:46;;;;;;;2.83;1.08;;;;;;;;;;5068981;28;20094;-72
2022/05/20 10:09:15;;;;;;;2.33;0.70;;;;;;;;;;5069680;28;20045;-72
2022/05/20 10:11:42;;;;;;;1.83;0.50;;;;;;;;;;5072339;28;20084;-74
2022/05/20 10:14:15;;;;;;;1.23;0.50;;;;;;;;;;5091409;28;20044;-74
2022/05/20 10:16:41;;;;;;;2.35;0.60;;;;;;;;;;5089706;28;20093;-74
2022/05/20 10:19:24;;;;;;;2.55;0.88;;;;;;;;;;5089939;28;20051;-74
2022/05/20 10:22:10;;;;;;;2.05;0.50;;;;;;;;;;5090898;28;20110;-75
2022/05/20 10:24:38;;;;;;;2.55;0.73;;;;;;;;;;5085229;28;20122;-74
2022/05/20 10:27:04;;;;;;;1.90;0.73;;;;;;;;;;5089582;28;20074;-70
2022/05/20 10:32:34;;;;;;;2.67;0.60;;;;;;;;;;5090615;28;20079;-70
2022/05/20 10:35:08;;;;;;;1.38;0.47;;;;;;;;;;5086226;28;20708;-70
2022/05/20 10:37:40;;;;;;;2.17;0.60;;;;;;;;;;5090755;28;20044;-70
2022/05/20 10:40:14;;;;;;;2.33;0.85;;;;;;;;;;5090691;28;20492;-69
2022/05/20 10:42:59;;;;;;;1.90;0.75;;;;;;;;;;5090066;28;20079;-79
2022/05/20 10:48:36;;;;;;;2.95;1.05;;;;;;;;;;5084128;28;20083;-72
2022/05/20 10:51:12;;;;;;;2.63;0.80;;;;;;;;;;5077032;28;20079;-71
2022/05/20 10:53:57;;;;;;;2.05;0.82;;;;;;;;;;5089119;28;20135;-72
2022/05/20 10:56:46;;;;;;;2.63;0.68;;;;;;;;;;5090552;28;20071;-72
2022/05/20 10:59:16;;;;;;;1.83;0.60;;;;;;;;;;5089972;28;20064;-72
2022/05/20 11:01:51;;;;;;;1.60;0.65;;;;;;;;;;5091955;28;20094;-72
2022/05/20 11:04:30;;;;;;;3.63;0.95;;;;;;;;;;5091930;28;20055;-72
2022/05/20 11:06:59;;;;;;;1.88;0.70;;;;;;;;;;5091586;28;20048;-72
2022/05/20 11:09:25;;;;;;;3.40;0.93;;;;;;;;;;5091798;28;20079;-72
2022/05/20 11:11:55;;;;;;;2.08;0.82;;;;;;;;;;5091965;28;20158;-72
2022/05/20 11:14:37;;;;;;;2.47;0.55;;;;;;;;;;5091647;28;20083;-72
2022/05/20 11:17:22;;;;;;;2.25;0.80;;;;;;;;;;5091527;28;20048;-72
2022/05/20 11:20:09;;;;;;;3.00;0.93;;;;;;;;;;5091753;28;20051;-72
2022/05/20 11:22:35;;;;;;;1.38;0.60;;;;;;;;;;5092228;28;20052;-72
2022/05/20 11:25:02;;;;;;;1.80;0.75;;;;;;;;;;5091597;28;20048;-72
2022/05/20 11:27:31;;;;;;;2.20;0.57;;;;;;;;;;5091628;28;20105;-72
2022/05/20 11:30:14;;;;;;;1.80;0.60;;;;;;;;;;5091636;28;20079;-72
2022/05/20 11:32:53;;;;;;;1.60;0.50;;;;;;;;;;5091554;28;20131;-72
2022/05/20 11:35:20;;;;;;;1.88;0.47;;;;;;;;;;5084122;28;20080;-72
2022/05/20 11:38:07;;;;;;;1.53;0.50;;;;;;;;;;5072799;28;20519;-72
2022/05/20 11:40:34;;;;;;;1.15;0.40;;;;;;;;;;5091373;28;20613;-72
2022/05/20 11:43:01;;;;;;;0.88;0.35;;;;;;;;;;5090225;28;20097;-72
2022/05/20 11:45:37;;;;;;;1.60;0.45;;;;;;;;;;5090065;28;20535;-72
2022/05/20 11:48:04;;;;;;;2.00;0.50;;;;;;;;;;5091383;28;20081;-72
2022/05/20 11:50:33;;;;;;;2.03;0.60;;;;;;;;;;5091413;28;20443;-72
2022/05/20 11:53:12;;;;;;;1.65;0.40;;;;;;;;;;5091071;28;20106;-72
2022/05/20 11:55:47;;;;;;;1.50;0.50;;;;;;;;;;5091143;28;20131;-72
2022/05/20 11:58:20;;;;;;;1.52;0.80;;;;;;;;;;5091389;28;20083;-72
2022/05/20 12:00:48;;;;;;;1.58;0.70;;;;;;;;;;5091169;28;20040;-72
2022/05/20 12:03:20;;;;;;;2.13;0.60;;;;;;;;;;5091445;28;20048;-72
2022/05/20 12:05:48;;;;;;;1.70;0.88;;;;;;;;;;5091032;28;20087;-72
2022/05/20 12:08:33;;;;;;;1.25;0.70;;;;;;;;;;5091362;28;20083;-72
2022/05/20 12:11:17;;;;;;;2.58;0.90;;;;;;;;;;5090803;28;20098;-72
2022/05/20 12:14:07;;;;;;;2.17;0.93;;;;;;;;;;5094639;28;20054;-72
2022/05/20 12:17:10;;;;;;;3.05;0.60;;;;;;;;;;5094110;28;20087;-72
2022/05/20 12:25:33;;;;;;;0.98;0.50;;;;;;;;;;5094707;28;20151;-72
2022/05/20 12:28:08;;;;;;;1.33;0.60;;;;;;;;;;5094309;28;20753;-72
2022/05/20 12:30:37;;;;;;;2.03;0.50;;;;;;;;;;5094252;28;20048;-72
2022/05/20 12:33:24;;;;;;;2.55;0.45;;;;;;;;;;5094202;28;20487;-72
2022/05/20 12:36:09;;;;;;;3.67;0.80;;;;;;;;;;5082285;28;20454;-72
2022/05/20 12:38:36;;;;;;;1.50;0.68;;;;;;;;;;5071149;28;20578;-72
2022/05/20 12:41:12;;;;;;;1.80;0.65;;;;;;;;;;5094132;28;20092;-72
2022/05/20 12:43:39;;;;;;;;;;;;;;;;;;5094580;28;20083;-72
2022/05/20 12:46:06;;;;;;;3.65;0.68;;;;;;;;;;5094161;28;20424;-72
2022/05/20 12:48:32;;;;;;;2.28;0.60;;;;;;;;;;5080279;28;20380;-72
2022/05/20 12:51:09;;;;;;;2.28;0.50;;;;;;;;;;5086575;28;20814;-72
2022/05/20 12:53:38;;;;;;;2.33;0.55;;;;;;;;;;5094059;28;20052;-72
2022/05/20 12:56:04;;;;;;;2.45;0.77;;;;;;;;;;5092441;28;20093;-72
2022/05/20 12:58:33;;;;;;;2.78;0.80;;;;;;;;;;5093913;28;20044;-72
2022/05/20 13:01:04;;;;;;;2.05;0.90;;;;;;;;;;5093656;28;20072;-72
2022/05/20 13:03:35;;;;;;;2.13;0.73;;;;;;;;;;5093690;28;20051;-71
2022/05/20 13:06:04;;;;;;;2.55;0.90;;;;;;;;;;5093540;28;20044;-72
2022/05/20 13:08:42;;;;;;;2.95;0.80;;;;;;;;;;5093454;28;20448;-72
2022/05/20 13:11:10;;;;;;;2.72;0.77;;;;;;;;;;5093750;28;20044;-72
2022/05/20 13:13:37;;;;;;;2.92;0.90;;;;;;;;;;5093786;28;20117;-72
2022/05/20 13:16:05;;;;;;;2.38;0.65;;;;;;;;;;5093426;28;20068;-72
2022/05/20 13:18:33;;;;;;;4.13;0.70;;;;;;;;;;5093298;28;20416;-72
2022/05/20 13:21:07;;;;;;;1.55;0.40;;;;;;;;;;5093969;28;20083;-72
2022/05/20 13:23:38;;;;;;;2.63;0.70;;;;;;;;;;5092819;28;20087;-72
2022/05/20 13:26:05;;;;;;;2.95;0.95;;;;;;;;;;5091455;28;20079;-71
2022/05/20 13:28:31;;;;;;;3.38;0.93;;;;;;;;;;5093462;28;20076;-70
2022/05/20 13:31:05;;;;;;;2.90;0.57;;;;;;;;;;5092965;28;20083;-70
2022/05/20 13:33:33;;;;;;;3.33;0.80;;;;;;;;;;5093383;28;20044;-70
2022/05/20 13:36:01;;;;;;;2.65;0.68;;;;;;;;;;5079891;28;20454;-71
2022/05/20 13:38:29;;;;;;;2.25;0.90;;;;;;;;;;5080191;28;20088;-70
2022/05/20 13:40:55;;;;;;;2.95;1.13;;;;;;;;;;5092648;28;20075;-70
2022/05/20 13:43:25;;;;;;;3.13;0.80;;;;;;;;;;5092363;28;20044;-70
2022/05/20 13:51:27;;;;;;;4.65;1.17;;;;;;;;;;5092299;28;20076;-71
2022/05/20 13:53:55;;;;;;;5.13;1.38;;;;;;;;;;5092038;28;20495;-71
2022/05/20 13:56:26;;;;;;;3.70;0.90;;;;;;;;;;5092433;28;20094;-71
2022/05/20 13:58:54;;;;;;;3.28;1.50;;;;;;;;;;5092368;28;20093;-71
2022/05/20 14:01:21;;;;;;;1.90;1.00;;;;;;;;;;5092415;28;20119;-70
2022/05/20 14:03:48;;;;;;;2.40;0.63;;;;;;;;;;5092135;28;20047;-70
2022/05/20 14:06:14;;;;;;;;;;;;;;;;;;5092349;28;20064;-71
2022/05/20 14:08:43;;;;;;;3.08;1.10;;;;;;;;;;5092265;28;19920;-71
2022/05/20 14:11:11;;;;;;;2.70;1.10;;;;;;;;;;5091794;28;20043;-73
2022/05/20 14:13:39;;;;;;;3.35;0.80;;;;;;;;;;5092461;28;20087;-72
2022/05/20 14:16:25;;;;;;;6.13;1.40;;;;;;;;;;5091010;28;20075;-72
2022/05/20 14:18:57;;;;;;;3.15;1.50;;;;;;;;;;5092492;28;20075;-72
2022/05/20 14:21:36;;;;;;;4.90;1.20;;;;;;;;;;5092465;28;20040;-72
2022/05/20 14:24:03;;;;;;;5.22;1.27;;;;;;;;;;5089753;28;20076;-73
2022/05/20 14:26:31;;;;;;;3.72;1.25;;;;;;;;;;5079075;28;20127;-72
2022/05/20 14:29:00;;;;;;;8.07;1.42;;;;;;;;;;5089594;28;20071;-71
2022/05/20 14:31:34;;;;;;;6.13;1.60;;;;;;;;;;5090451;28;20044;-71
2022/05/20 14:34:06;;;;;;;7.82;1.23;;;;;;;;;;5090486;28;20087;-72
2022/05/20 14:36:34;;;;;;;6.13;1.35;;;;;;;;;;5087942;28;20060;-72
2022/05/20 14:39:00;;;;;;;3.55;1.23;;;;;;;;;;5091088;28;20087;-72
2022/05/20 14:41:29;;;;;;;6.50;1.52;;;;;;;;;;5086132;28;20527;-72
2022/05/20 14:44:00;;;;;;;4.78;1.42;;;;;;;;;;5090488;28;20082;-72
2022/05/20 14:49:24;;;;;;;3.42;1.77;;;;;;;;;;5090121;28;20399;-72
2022/05/20 14:51:55;;;;;;;5.00;1.95;;;;;;;;;;5091232;28;20139;-72
2022/05/20 14:54:35;;;;;;;6.22;2.00;;;;;;;;;;5091972;28;20044;-72
2022/05/20 14:57:20;;;;;;;4.43;1.50;;;;;;;;;;5090450;28;20077;-72
2022/05/20 15:00:03;;;;;;;6.43;1.95;;;;;;;;;;5091990;28;20090;-72
2022/05/20 15:02:29;;;;;;;7.35;1.73;;;;;;;;;;5090717;28;20139;-72
2022/05/20 15:04:56;;;;;;;6.90;1.75;;;;;;;;;;5091991;28;20056;-72
2022/05/20 15:07:22;;;;;;;6.65;2.35;;;;;;;;;;5090625;28;20464;-72
2022/05/20 15:09:51;;;;;;;6.43;1.75;;;;;;;;;;5091568;28;20410;-72
2022/05/20 15:12:18;;;;;;;5.78;2.00;;;;;;;;;;5091407;28;20127;-72
2022/05/20 15:14:47;;;;;;;5.60;1.90;;;;;;;;;;5091565;28;20051;-72
2022/05/20 15:17:14;;;;;;;7.07;2.08;;;;;;;;;;5091703;28;20110;-72
2022/05/20 15:19:41;;;;;;;4.45;2.05;;;;;;;;;;5091458;28;20056;-72
2022/05/20 15:22:08;;;;;;;4.28;1.88;;;;;;;;;;5091640;28;20059;-72
2022/05/20 15:24:35;;;;;;;;;;;;;;;;;;5092111;28;20082;-72
2022/05/20 15:27:10;;;;;;;8.27;1.48;;;;;;;;;;5090308;28;19920;-72
2022/05/20 15:29:36;;;;;;;6.57;1.95;;;;;;;;;;5091766;28;20056;-72
2022/05/20 15:34:55;;;;;;;5.22;1.45;;;;;;;;;;5088640;28;20044;-72
2022/05/20 15:37:29;;;;;;;6.85;1.73;;;;;;;;;;5069854;28;20458;-72
2022/05/20 15:39:59;;;;;;;6.53;1.42;;;;;;;;;;5090907;28;20492;-72
2022/05/20 15:42:26;;;;;;;6.75;1.85;;;;;;;;;;5091219;28;20102;-72